createdAt,value
2023-06-07T00:00:29.885Z,17.42
2023-06-07T00:03:18.327Z,17.19
2023-06-07T00:05:46.682Z,17.23
2023-06-07T00:08:14.459Z,17.18
2023-06-07T00:10:41.848Z,17.23
2023-06-07T00:13:09.527Z,17.23
2023-06-07T00:15:37.016Z,17.22
2023-06-07T00:18:04.995Z,17.17
2023-06-07T00:20:33.052Z,17.20
2023-06-07T00:23:03.181Z,17.39
2023-06-07T00:25:30.706Z,17.39
2023-06-07T00:28:01.074Z,17.42
2023-06-07T00:30:28.507Z,17.44
2023-06-07T00:32:56.300Z,17.38
2023-06-07T00:35:23.926Z,17.36
2023-06-07T00:37:51.627Z,17.42
2023-06-07T00:40:19.193Z,17.47
2023-06-07T00:42:46.974Z,17.38
2023-06-07T00:45:14.468Z,17.28
2023-06-07T00:47:42.710Z,17.33
2023-06-07T00:50:10.938Z,17.43
2023-06-07T00:52:39.461Z,17.51
2023-06-07T00:55:09.637Z,17.51
2023-06-07T00:57:37.548Z,17.55
2023-06-07T01:00:11.247Z,17.59
2023-06-07T01:02:39.186Z,17.59
2023-06-07T01:05:08.072Z,17.54
2023-06-07T01:07:35.936Z,17.56
2023-06-07T01:10:04.859Z,17.54
2023-06-07T01:12:37.028Z,17.48
2023-06-07T01:15:05.266Z,17.49
2023-06-07T01:17:39.006Z,17.55
2023-06-07T01:20:28.452Z,17.56
2023-06-07T01:23:00.092Z,17.58
2023-06-07T01:25:27.849Z,17.43
2023-06-07T01:27:58.479Z,17.52
2023-06-07T01:30:26.499Z,17.40
2023-06-07T01:32:54.728Z,17.42
2023-06-07T01:35:22.619Z,17.44
2023-06-07T01:37:52.500Z,17.49
2023-06-07T01:40:22.846Z,17.40
2023-06-07T01:42:54.876Z,17.49
2023-06-07T01:45:25.599Z,17.43
2023-06-07T01:47:55.056Z,17.33
2023-06-07T01:50:25.620Z,17.34
2023-06-07T01:52:54.003Z,17.34
2023-06-07T01:55:25.521Z,17.42
2023-06-07T01:58:35.525Z,17.57
2023-06-07T02:01:30.184Z,17.44
2023-06-07T02:04:01.534Z,17.38
2023-06-07T02:06:36.056Z,17.42
2023-06-07T02:09:08.523Z,17.28
2023-06-07T02:11:39.303Z,17.39
2023-06-07T02:14:10.166Z,17.46
2023-06-07T02:16:37.936Z,17.31
2023-06-07T02:19:10.707Z,17.30
2023-06-07T02:21:50.247Z,17.19
2023-06-07T02:24:19.017Z,17.12
2023-06-07T02:26:46.568Z,17.13
2023-06-07T02:29:15.193Z,17.16
2023-06-07T02:31:42.630Z,17.16
2023-06-07T02:34:10.606Z,17.12
2023-06-07T02:36:41.117Z,17.37
2023-06-07T02:39:09.951Z,17.40
2023-06-07T02:41:37.565Z,17.36
2023-06-07T02:44:05.508Z,17.42
2023-06-07T02:46:32.957Z,17.45
2023-06-07T02:49:00.937Z,17.58
2023-06-07T02:51:30.136Z,17.58
2023-06-07T02:53:58.039Z,17.62
2023-06-07T02:56:30.561Z,17.56
2023-06-07T02:58:58.575Z,17.49
2023-06-07T03:01:32.533Z,17.53
2023-06-07T03:04:01.016Z,17.51
2023-06-07T03:06:30.870Z,17.47
2023-06-07T03:09:05.388Z,17.50
2023-06-07T03:11:34.511Z,17.50
2023-06-07T03:14:02.307Z,17.58
2023-06-07T03:16:37.114Z,17.60
2023-06-07T03:19:07.446Z,17.57
2023-06-07T03:21:34.943Z,17.68
2023-06-07T03:24:06.791Z,17.62
2023-06-07T03:26:34.575Z,17.60
2023-06-07T03:29:03.662Z,17.63
2023-06-07T03:31:35.329Z,17.68
2023-06-07T03:34:07.448Z,17.64
2023-06-07T03:36:37.267Z,17.78
2023-06-07T03:39:05.382Z,17.90
2023-06-07T03:41:33.094Z,17.83
2023-06-07T03:44:06.042Z,17.90
2023-06-07T03:46:33.843Z,17.90
2023-06-07T03:49:01.457Z,17.93
2023-06-07T03:51:29.437Z,17.94
2023-06-07T03:54:01.008Z,18.08
2023-06-07T03:56:29.074Z,18.10
2023-06-07T03:58:56.824Z,18.15
2023-06-07T04:01:27.211Z,18.19
2023-06-07T04:03:57.819Z,18.25
2023-06-07T04:06:29.135Z,18.26
2023-06-07T04:08:58.474Z,18.31
2023-06-07T04:11:28.565Z,18.31
2023-06-07T04:13:56.928Z,18.47
2023-06-07T04:16:28.178Z,18.48
2023-06-07T04:18:55.965Z,18.44
2023-06-07T04:21:24.127Z,18.51
2023-06-07T04:23:52.412Z,18.63
2023-06-07T04:26:24.220Z,18.69
2023-06-07T04:28:52.911Z,18.74
2023-06-07T04:31:30.766Z,18.78
2023-06-07T04:34:08.596Z,18.79
2023-06-07T04:36:38.741Z,18.89
2023-06-07T04:39:11.664Z,18.92
2023-06-07T04:41:44.065Z,18.97
2023-06-07T04:44:14.026Z,18.97
2023-06-07T04:46:45.382Z,19.03
2023-06-07T04:49:18.608Z,19.04
2023-06-07T04:51:49.899Z,19.09
2023-06-07T04:54:19.614Z,19.02
2023-06-07T04:56:54.428Z,19.01
2023-06-07T04:59:26.173Z,19.00
2023-06-07T05:01:53.648Z,19.06
2023-06-07T05:04:22.490Z,19.16
2023-06-07T05:07:00.139Z,19.21
2023-06-07T05:09:32.244Z,19.33
2023-06-07T05:12:03.893Z,19.34
2023-06-07T05:14:33.008Z,19.34
2023-06-07T05:17:01.383Z,19.25
2023-06-07T05:19:32.817Z,19.24
2023-06-07T05:22:00.416Z,19.15
2023-06-07T05:24:28.215Z,19.16
2023-06-07T05:26:56.284Z,19.12
2023-06-07T05:29:24.025Z,19.30
2023-06-07T05:31:52.463Z,19.40
2023-06-07T05:34:20.504Z,19.42
2023-06-07T05:36:47.974Z,19.45
2023-06-07T05:39:16.007Z,19.50
2023-06-07T05:41:44.236Z,19.45
2023-06-07T05:44:12.260Z,19.43
2023-06-07T05:46:39.850Z,19.45
2023-06-07T05:49:07.803Z,19.49
2023-06-07T05:51:36.032Z,19.39
2023-06-07T05:54:03.922Z,19.40
2023-06-07T05:56:31.426Z,19.52
2023-06-07T05:58:59.348Z,19.61
2023-06-07T06:01:27.888Z,19.87
2023-06-07T06:03:55.735Z,19.90
2023-06-07T06:06:25.400Z,20.09
2023-06-07T06:08:53.104Z,20.54
2023-06-07T06:11:20.665Z,20.31
2023-06-07T06:13:49.882Z,20.18
2023-06-07T06:16:17.295Z,20.28
2023-06-07T06:18:45.194Z,20.28
2023-06-07T06:21:13.095Z,20.37
2023-06-07T06:23:41.028Z,20.39
2023-06-07T06:26:08.493Z,20.37
2023-06-07T06:28:36.228Z,20.35
2023-06-07T06:31:05.186Z,20.42
2023-06-07T06:33:33.118Z,20.49
2023-06-07T06:36:01.324Z,20.57
2023-06-07T06:38:29.102Z,20.71
2023-06-07T06:40:56.620Z,20.64
2023-06-07T06:43:25.061Z,20.59
2023-06-07T06:45:58.998Z,20.51
2023-06-07T06:48:28.966Z,20.65
2023-06-07T06:50:58.400Z,20.80
2023-06-07T06:53:27.180Z,20.88
2023-06-07T06:55:55.557Z,20.78
2023-06-07T06:58:24.639Z,21.14
2023-06-07T07:00:52.945Z,21.22
2023-06-07T07:03:22.597Z,21.21
2023-06-07T07:05:51.180Z,20.98
2023-06-07T07:08:20.087Z,21.07
2023-06-07T07:10:51.594Z,21.20
2023-06-07T07:13:19.878Z,21.18
2023-06-07T07:15:49.682Z,21.53
2023-06-07T07:18:21.190Z,21.53
2023-06-07T07:20:51.265Z,21.59
2023-06-07T07:23:19.542Z,21.79
2023-06-07T07:25:47.378Z,22.01
2023-06-07T07:28:15.697Z,22.05
2023-06-07T07:30:43.302Z,22.18
2023-06-07T07:33:11.022Z,22.26
2023-06-07T07:35:38.438Z,22.39
2023-06-07T07:38:07.843Z,22.46
2023-06-07T07:40:35.130Z,22.61
2023-06-07T07:43:02.806Z,22.62
2023-06-07T07:45:30.235Z,22.68
2023-06-07T07:47:58.107Z,22.61
2023-06-07T07:50:25.527Z,22.52
2023-06-07T07:52:55.051Z,22.61
2023-06-07T07:55:24.953Z,22.64
2023-06-07T07:57:52.490Z,22.59
2023-06-07T08:00:20.235Z,22.58
2023-06-07T08:02:48.692Z,22.68
2023-06-07T08:05:16.141Z,22.76
2023-06-07T08:07:43.949Z,23.01
2023-06-07T08:10:11.776Z,23.14
2023-06-07T08:12:40.909Z,23.41
2023-06-07T08:15:10.215Z,23.67
2023-06-07T08:17:38.006Z,23.68
2023-06-07T08:20:07.506Z,24.10
2023-06-07T08:22:39.118Z,24.28
2023-06-07T08:25:07.248Z,24.40
2023-06-07T08:27:34.870Z,24.50
2023-06-07T08:30:02.807Z,24.60
2023-06-07T08:32:30.903Z,24.86
2023-06-07T08:34:58.397Z,24.52
2023-06-07T08:37:26.154Z,24.47
2023-06-07T08:39:53.605Z,24.30
2023-06-07T08:42:21.323Z,24.20
2023-06-07T08:44:48.831Z,24.28
2023-06-07T08:47:18.588Z,24.56
2023-06-07T08:49:47.708Z,24.46
2023-06-07T08:52:17.396Z,24.39
2023-06-07T08:54:48.596Z,24.31
2023-06-07T08:57:18.595Z,24.30
2023-06-07T08:59:47.746Z,24.20
2023-06-07T09:02:16.553Z,24.15
2023-06-07T09:04:45.006Z,24.04
2023-06-07T09:07:13.836Z,24.03
2023-06-07T09:09:43.104Z,24.06
2023-06-07T09:12:14.531Z,23.99
2023-06-07T09:14:42.395Z,23.84
2023-06-07T09:17:10.372Z,23.88
2023-06-07T09:19:41.846Z,23.86
2023-06-07T09:22:18.557Z,23.65
2023-06-07T09:24:46.001Z,23.71
2023-06-07T09:27:14.732Z,23.85
2023-06-07T09:29:44.644Z,24.12
2023-06-07T09:32:25.257Z,24.36
2023-06-07T09:34:56.143Z,24.44
2023-06-07T09:37:42.369Z,24.59
2023-06-07T09:40:09.928Z,24.55
2023-06-07T09:42:38.356Z,24.39
2023-06-07T09:45:17.182Z,24.46
2023-06-07T09:47:45.330Z,24.42
2023-06-07T09:50:14.564Z,24.67
2023-06-07T09:52:43.665Z,24.95
2023-06-07T09:55:27.907Z,25.17
2023-06-07T09:57:59.465Z,25.14
2023-06-07T10:00:27.754Z,25.17
2023-06-07T10:03:07.388Z,25.14
2023-06-07T10:05:35.764Z,25.10
2023-06-07T10:08:04.850Z,24.95
2023-06-07T10:10:36.371Z,24.82
2023-06-07T10:13:07.325Z,24.78
2023-06-07T10:15:36.993Z,24.79
2023-06-07T10:18:26.188Z,24.91
2023-06-07T10:21:03.400Z,25.08
2023-06-07T10:24:03.958Z,25.96
2023-06-07T10:26:50.097Z,27.12
2023-06-07T10:29:39.915Z,28.19
2023-06-07T10:32:13.738Z,29.34
2023-06-07T10:34:42.979Z,30.23
2023-06-07T10:37:11.413Z,31.15
2023-06-07T10:39:39.817Z,32.16
2023-06-07T10:42:08.181Z,33.04
2023-06-07T10:44:38.424Z,33.70
2023-06-07T10:47:23.897Z,34.62
2023-06-07T10:49:52.467Z,35.22
2023-06-07T10:52:20.094Z,35.28
2023-06-07T10:54:48.243Z,34.53
2023-06-07T10:57:15.817Z,33.68
2023-06-07T10:59:44.184Z,32.66
2023-06-07T11:02:25.314Z,31.46
2023-06-07T11:05:01.399Z,30.24
2023-06-07T11:07:34.183Z,30.39
2023-06-07T11:10:08.914Z,31.52
2023-06-07T11:12:37.314Z,31.80
2023-06-07T11:15:26.397Z,31.70
2023-06-07T11:18:06.749Z,30.67
2023-06-07T11:20:40.763Z,29.98
2023-06-07T11:23:28.696Z,29.95
2023-06-07T11:26:04.438Z,29.79
2023-06-07T11:28:34.882Z,29.38
2023-06-07T11:31:08.003Z,28.62
2023-06-07T11:33:37.611Z,28.07
2023-06-07T11:36:10.900Z,27.70
2023-06-07T11:38:39.373Z,27.13
2023-06-07T11:41:07.870Z,26.75
2023-06-07T11:43:35.550Z,26.51
2023-06-07T11:46:03.322Z,26.13
2023-06-07T11:48:32.062Z,25.76
2023-06-07T11:51:02.309Z,25.56
2023-06-07T11:53:30.795Z,25.26
2023-06-07T11:56:00.105Z,25.01
2023-06-07T11:58:28.002Z,24.62
2023-06-07T12:00:57.918Z,24.49
2023-06-07T12:03:26.929Z,24.19
2023-06-07T12:05:55.413Z,23.85
2023-06-07T12:08:24.132Z,23.59
2023-06-07T12:10:56.241Z,23.50
2023-06-07T12:13:24.903Z,23.38
2023-06-07T12:15:57.821Z,23.29
2023-06-07T12:18:31.411Z,23.06
2023-06-07T12:21:07.267Z,22.75
2023-06-07T12:23:38.674Z,22.50
2023-06-07T12:26:11.483Z,22.43
2023-06-07T12:28:44.610Z,22.19
2023-06-07T12:31:23.747Z,22.18
2023-06-07T12:34:08.181Z,22.12
2023-06-07T12:36:39.327Z,22.05
2023-06-07T12:39:13.848Z,22.00
2023-06-07T12:41:41.843Z,22.03
2023-06-07T12:44:11.075Z,22.13
2023-06-07T12:46:41.295Z,22.14
2023-06-07T12:49:08.806Z,22.26
2023-06-07T12:51:38.052Z,22.31
2023-06-07T12:54:05.748Z,22.18
2023-06-07T12:56:33.770Z,22.22
2023-06-07T12:59:03.871Z,22.07
2023-06-07T13:01:32.596Z,22.03
2023-06-07T13:04:01.959Z,22.04
2023-06-07T13:06:30.376Z,21.91
2023-06-07T13:09:08.832Z,21.91
2023-06-07T13:11:38.901Z,21.96
2023-06-07T13:14:06.987Z,21.83
2023-06-07T13:16:35.754Z,21.80
2023-06-07T13:19:03.784Z,21.76
2023-06-07T13:21:31.920Z,21.70
2023-06-07T13:23:59.680Z,21.68
2023-06-07T13:26:27.708Z,21.64
2023-06-07T13:28:55.179Z,21.62
2023-06-07T13:31:23.063Z,21.57
2023-06-07T13:33:50.924Z,21.30
2023-06-07T13:36:18.891Z,20.81
2023-06-07T13:38:46.972Z,20.67
2023-06-07T13:41:14.728Z,20.72
2023-06-07T13:46:13.013Z,20.21
2023-06-07T13:48:42.754Z,20.23
2023-06-07T13:51:13.550Z,20.09
2023-06-07T13:53:42.647Z,20.44
2023-06-07T13:56:11.672Z,19.89
2023-06-07T13:58:39.428Z,19.68
2023-06-07T14:01:07.440Z,19.45
2023-06-07T14:03:36.418Z,19.43
2023-06-07T14:06:04.607Z,18.99
2023-06-07T14:08:32.628Z,18.66
2023-06-07T14:11:01.626Z,18.49
2023-06-07T14:13:29.472Z,18.31
2023-06-07T14:15:57.600Z,18.31
2023-06-07T14:18:26.584Z,18.38
2023-06-07T14:20:54.549Z,18.31
2023-06-07T14:23:22.022Z,18.45
2023-06-07T14:25:49.762Z,18.37
2023-06-07T14:28:19.371Z,18.40
2023-06-07T14:30:48.035Z,18.48
2023-06-07T14:33:15.636Z,18.41
2023-06-07T14:35:43.695Z,18.50
2023-06-07T14:38:11.163Z,18.39
2023-06-07T14:40:39.122Z,18.48
2023-06-07T14:43:06.699Z,18.45
2023-06-07T14:45:34.761Z,18.52
2023-06-07T14:48:06.173Z,19.02
2023-06-07T14:50:34.411Z,19.00
2023-06-07T14:53:02.017Z,18.96
2023-06-07T14:55:30.003Z,19.00
2023-06-07T14:58:00.805Z,18.81
2023-06-07T15:00:32.583Z,18.96
2023-06-07T15:03:00.320Z,18.96
2023-06-07T15:05:29.285Z,18.78
2023-06-07T15:08:00.110Z,18.53
2023-06-07T15:10:29.969Z,18.89
2023-06-07T15:12:59.671Z,18.45
2023-06-07T15:15:34.131Z,18.23
2023-06-07T15:18:09.460Z,18.16
2023-06-07T15:20:41.574Z,17.96
2023-06-07T15:23:10.266Z,17.84
2023-06-07T15:25:39.036Z,17.84
2023-06-07T15:28:06.764Z,17.90
2023-06-07T15:30:34.750Z,17.87
2023-06-07T15:33:02.285Z,17.88
2023-06-07T15:35:30.088Z,17.67
2023-06-07T15:37:57.997Z,17.79
2023-06-07T15:40:25.971Z,18.09
2023-06-07T15:42:53.482Z,18.20
2023-06-07T15:45:21.277Z,18.19
2023-06-07T15:48:05.245Z,18.44
2023-06-07T15:50:33.358Z,18.24
2023-06-07T15:53:02.981Z,18.15
2023-06-07T15:55:31.021Z,18.20
2023-06-07T15:57:59.048Z,18.29
2023-06-07T16:00:37.855Z,18.43
2023-06-07T16:03:07.047Z,18.41
2023-06-07T16:05:35.031Z,18.40
2023-06-07T16:08:12.222Z,18.37
2023-06-07T16:10:41.856Z,18.47
2023-06-07T16:13:09.362Z,18.53
2023-06-07T16:15:37.709Z,18.46
2023-06-07T16:18:06.533Z,18.04
2023-06-07T16:20:34.499Z,17.88
2023-06-07T16:23:02.030Z,17.96
2023-06-07T16:25:30.241Z,18.07
2023-06-07T16:27:57.834Z,18.03
2023-06-07T16:30:26.831Z,18.07
2023-06-07T16:32:55.421Z,18.06
2023-06-07T16:35:23.469Z,17.93
2023-06-07T16:37:51.050Z,18.00
2023-06-07T16:40:18.914Z,17.89
2023-06-07T16:42:47.450Z,17.93
2023-06-07T16:45:15.452Z,17.90
2023-06-07T16:47:42.937Z,18.02
2023-06-07T16:50:13.396Z,18.16
2023-06-07T16:52:40.900Z,18.17
2023-06-07T16:55:09.229Z,18.23
2023-06-07T16:57:40.021Z,18.09
2023-06-07T17:00:09.300Z,18.58
2023-06-07T17:02:37.086Z,18.45
2023-06-07T17:05:05.276Z,18.48
2023-06-07T17:07:32.792Z,18.30
2023-06-07T17:10:00.631Z,18.27
2023-06-07T17:12:29.447Z,18.44
2023-06-07T17:14:57.395Z,18.40
2023-06-07T17:17:25.134Z,18.34
2023-06-07T17:19:53.428Z,18.31
2023-06-07T17:22:20.891Z,18.19
2023-06-07T17:24:48.758Z,18.25
2023-06-07T17:27:16.456Z,18.06
2023-06-07T17:29:44.270Z,17.95
2023-06-07T17:32:11.959Z,17.76
2023-06-07T17:34:39.739Z,17.91
2023-06-07T17:37:08.804Z,17.84
2023-06-07T17:39:36.706Z,17.83
2023-06-07T17:42:04.507Z,17.91
2023-06-07T17:44:32.382Z,18.02
2023-06-07T17:46:59.753Z,18.05
2023-06-07T17:49:27.838Z,18.14
2023-06-07T17:51:58.373Z,18.09
2023-06-07T17:54:28.581Z,18.16
2023-06-07T17:56:56.248Z,18.03
2023-06-07T17:59:26.069Z,17.98
2023-06-07T18:01:56.978Z,18.11
2023-06-07T18:04:26.274Z,18.12
2023-06-07T18:06:54.554Z,17.88
2023-06-07T18:09:22.608Z,17.95
2023-06-07T18:11:50.701Z,17.97
2023-06-07T18:14:18.858Z,18.07
2023-06-07T18:16:46.905Z,18.09
2023-06-07T18:19:15.302Z,18.18
2023-06-07T18:21:43.291Z,18.18
2023-06-07T18:24:11.749Z,18.12
2023-06-07T18:26:39.780Z,18.14
2023-06-07T18:29:08.044Z,18.09
2023-06-07T18:31:36.126Z,18.10
2023-06-07T18:34:04.504Z,18.15
2023-06-07T18:36:32.174Z,18.22
2023-06-07T18:39:00.857Z,18.15
2023-06-07T18:41:28.487Z,18.08
2023-06-07T18:43:58.607Z,18.05
2023-06-07T18:46:26.219Z,18.14
2023-06-07T18:48:54.418Z,18.20
2023-06-07T18:51:22.978Z,18.16
2023-06-07T18:53:51.901Z,17.95
2023-06-07T18:56:20.153Z,18.05
2023-06-07T18:58:49.397Z,18.07
2023-06-07T19:01:16.924Z,18.02
2023-06-07T19:03:45.455Z,17.87
2023-06-07T19:06:14.044Z,17.99
2023-06-07T19:08:45.686Z,18.00
2023-06-07T19:11:13.182Z,17.99
2023-06-07T19:13:41.722Z,18.02
2023-06-07T19:16:09.139Z,18.02
2023-06-07T19:18:38.711Z,18.06
2023-06-07T19:21:06.874Z,18.04
2023-06-07T19:23:34.937Z,17.97
2023-06-07T19:26:03.067Z,17.96
2023-06-07T19:28:31.980Z,17.93
2023-06-07T19:31:00.339Z,17.72
2023-06-07T19:33:29.740Z,17.64
2023-06-07T19:35:57.195Z,17.73
2023-06-07T19:38:26.345Z,17.58
2023-06-07T19:40:53.955Z,17.67
2023-06-07T19:43:21.956Z,17.70
2023-06-07T19:45:49.573Z,17.51
2023-06-07T19:48:18.444Z,17.55
2023-06-07T19:50:45.895Z,17.61
2023-06-07T19:53:13.852Z,17.59
2023-06-07T19:55:41.992Z,17.60
2023-06-07T19:58:10.974Z,17.55
2023-06-07T20:00:39.370Z,17.51
2023-06-07T20:03:07.471Z,17.44
2023-06-07T20:05:35.738Z,17.45
2023-06-07T20:08:08.910Z,17.36
2023-06-07T20:10:37.065Z,17.24
2023-06-07T20:13:05.018Z,17.28
2023-06-07T20:15:32.472Z,17.37
2023-06-07T20:18:01.404Z,17.41
2023-06-07T20:20:29.082Z,17.45
2023-06-07T20:22:56.905Z,17.45
2023-06-07T20:25:25.841Z,17.52
2023-06-07T20:27:53.684Z,17.52
2023-06-07T20:30:21.852Z,17.67
2023-06-07T20:32:49.834Z,17.39
2023-06-07T20:35:17.393Z,17.60
2023-06-07T20:37:45.142Z,17.65
2023-06-07T20:40:13.419Z,17.53
2023-06-07T20:42:43.200Z,17.32
2023-06-07T20:45:11.891Z,17.43
2023-06-07T20:47:40.161Z,17.37
2023-06-07T20:50:10.648Z,17.37
2023-06-07T20:52:38.534Z,17.48
2023-06-07T20:55:06.572Z,17.67
2023-06-07T20:57:34.076Z,17.57
2023-06-07T21:00:05.146Z,17.42
2023-06-07T21:02:35.846Z,17.72
2023-06-07T21:05:04.499Z,17.36
2023-06-07T21:07:32.270Z,17.17
2023-06-07T21:10:00.358Z,17.33
2023-06-07T21:12:27.873Z,17.50
2023-06-07T21:14:57.753Z,17.44
2023-06-07T21:17:26.074Z,17.36
2023-06-07T21:19:54.157Z,17.33
2023-06-07T21:22:21.541Z,17.35
2023-06-07T21:24:49.233Z,17.40
2023-06-07T21:27:17.153Z,17.50
2023-06-07T21:29:44.888Z,17.39
2023-06-07T21:32:12.368Z,17.47
2023-06-07T21:34:40.049Z,17.58
2023-06-07T21:37:07.662Z,17.63
2023-06-07T21:39:35.551Z,17.64
2023-06-07T21:42:03.724Z,17.60
2023-06-07T21:44:31.581Z,17.47
2023-06-07T21:46:58.986Z,17.19
2023-06-07T21:49:26.728Z,17.21
2023-06-07T21:51:54.101Z,17.14
2023-06-07T21:54:21.948Z,17.43
2023-06-07T21:56:49.419Z,17.33
2023-06-07T21:59:17.128Z,17.36
2023-06-07T22:01:44.641Z,17.31
2023-06-07T22:04:12.515Z,17.20
2023-06-07T22:06:40.028Z,17.25
2023-06-07T22:09:07.756Z,17.20
2023-06-07T22:11:35.201Z,17.27
2023-06-07T22:14:04.084Z,17.30
2023-06-07T22:16:35.453Z,17.28
2023-06-07T22:19:03.310Z,17.16
2023-06-07T22:21:31.659Z,16.94
2023-06-07T22:23:59.447Z,16.93
2023-06-07T22:26:30.548Z,16.88
2023-06-07T22:29:01.533Z,16.97
2023-06-07T22:31:33.238Z,17.10
2023-06-07T22:34:10.524Z,17.11
2023-06-07T22:36:44.145Z,17.08
2023-06-07T22:39:13.296Z,17.12
2023-06-07T22:41:41.923Z,17.10
2023-06-07T22:44:10.737Z,17.13
2023-06-07T22:46:39.172Z,17.06
2023-06-07T22:49:07.099Z,16.97
2023-06-07T22:51:34.929Z,17.10
2023-06-07T22:54:03.851Z,17.16
2023-06-07T22:56:32.153Z,17.11
2023-06-07T22:58:59.947Z,17.10
2023-06-07T23:01:30.874Z,17.14
2023-06-07T23:03:58.835Z,17.10
2023-06-07T23:06:32.638Z,17.05
2023-06-07T23:09:02.493Z,17.34
2023-06-07T23:11:30.476Z,17.40
2023-06-07T23:14:01.413Z,17.45
2023-06-07T23:16:29.530Z,17.37
2023-06-07T23:18:58.459Z,17.28
2023-06-07T23:21:27.010Z,17.19
2023-06-07T23:23:54.787Z,17.12
2023-06-07T23:26:23.534Z,17.18
2023-06-07T23:28:51.366Z,17.20
2023-06-07T23:31:18.822Z,17.12
2023-06-07T23:33:46.646Z,17.17
2023-06-07T23:36:16.400Z,17.28
2023-06-07T23:38:45.382Z,17.41
2023-06-07T23:41:13.723Z,17.21
2023-06-07T23:43:41.589Z,17.09
2023-06-07T23:46:09.052Z,17.07
2023-06-07T23:48:40.321Z,17.11
2023-06-07T23:51:07.741Z,17.12
2023-06-07T23:53:35.577Z,17.21
2023-06-07T23:56:02.990Z,17.22
2023-06-07T23:58:31.217Z,17.21
